Time;durP1;ratioP1;P1;durP2;ratioP2;P2;SDS_P1;SDS_P2;PMS_P1;PMS_P2;Temp;Humidity;BMP_temperature;BMP_pressure;BME280_temperature;BME280_humidity;BME280_pressure;Samples;Min_cycle;Max_cycle;Signal;HPM_P1;HPM_P2
2024/03/24 00:01:40;;;;;;;7.80;2.90;;;;;;;3.55;100.00;99131.38;5029778;28;20768;-78
2024/03/24 00:04:05;;;;;;;10.85;3.00;;;;;;;3.64;100.00;99175.31;5030282;28;20041;-77
2024/03/24 00:06:31;;;;;;;15.88;3.10;;;;;;;3.69;100.00;99185.41;5051339;28;20036;-77
2024/03/24 00:08:56;;;;;;;13.23;3.55;;;;;;;3.76;100.00;99195.16;5044128;28;20039;-78
2024/03/24 00:11:22;;;;;;;10.18;3.35;;;;;;;3.69;100.00;99188.84;5047026;28;20061;-77
2024/03/24 00:13:47;;;;;;;10.85;4.10;;;;;;;3.81;100.00;99195.50;5052869;28;20036;-78
2024/03/24 00:16:14;;;;;;;16.48;3.47;;;;;;;3.66;100.00;99157.50;5041164;28;20051;-78
2024/03/24 00:18:40;;;;;;;6.90;2.72;;;;;;;3.67;100.00;99166.25;5064669;28;20511;-77
2024/03/24 00:21:06;;;;;;;10.80;3.50;;;;;;;3.48;100.00;99147.00;5066690;28;20036;-78
2024/03/24 00:23:32;;;;;;;10.60;3.80;;;;;;;3.49;100.00;99167.13;5058844;28;20078;-77
2024/03/24 00:25:57;;;;;;;11.32;2.70;;;;;;;3.61;100.00;99180.91;5049871;28;20048;-77
2024/03/24 00:28:22;;;;;;;15.73;2.80;;;;;;;3.44;100.00;99160.66;5047562;28;20060;-77
2024/03/24 00:30:48;;;;;;;12.32;3.05;;;;;;;3.55;100.00;99160.41;5060222;28;20047;-77
2024/03/24 00:33:13;;;;;;;11.48;3.03;;;;;;;3.36;100.00;99133.25;5065647;28;20036;-78
2024/03/24 00:35:39;;;;;;;11.07;3.47;;;;;;;3.45;100.00;99146.50;5040913;28;20025;-78
2024/03/24 00:38:04;;;;;;;11.43;3.10;;;;;;;3.42;100.00;99138.88;5065105;28;20811;-78
2024/03/24 00:40:30;;;;;;;6.67;2.63;;;;;;;3.45;100.00;99141.22;5054764;28;20055;-77
2024/03/24 00:42:55;;;;;;;9.25;3.17;;;;;;;3.35;100.00;99142.16;5037856;28;20323;-78
2024/03/24 00:45:21;;;;;;;17.15;3.80;;;;;;;3.44;100.00;99161.50;5029820;28;20033;-78
2024/03/24 00:47:46;;;;;;;15.75;3.05;;;;;;;3.37;100.00;99149.91;5028415;28;20041;-78
2024/03/24 00:50:14;;;;;;;10.77;4.13;;;;;;;3.22;100.00;99133.81;5037791;28;20037;-78
2024/03/24 00:52:39;;;;;;;8.93;3.45;;;;;;;3.21;100.00;99131.31;5050203;28;20082;-77
2024/03/24 00:55:05;;;;;;;12.77;3.22;;;;;;;3.49;100.00;99163.66;5032211;28;20037;-77
2024/03/24 00:57:30;;;;;;;11.88;3.85;;;;;;;3.43;100.00;99145.81;5049625;28;20035;-78
2024/03/24 00:59:56;;;;;;;7.33;3.00;;;;;;;3.43;100.00;99130.00;5068211;28;20484;-78
2024/03/24 01:02:21;;;;;;;9.82;2.97;;;;;;;3.43;100.00;99127.34;5065202;28;20036;-78
2024/03/24 01:04:46;;;;;;;15.20;3.63;;;;;;;3.37;100.00;99118.22;5051868;28;20090;-78
2024/03/24 01:07:12;;;;;;;10.10;3.50;;;;;;;3.34;100.00;99122.00;5067889;28;20282;-77
2024/03/24 01:09:37;;;;;;;8.83;4.53;;;;;;;3.36;100.00;99132.41;5055994;28;20137;-77
2024/03/24 01:12:03;;;;;;;10.47;3.90;;;;;;;3.29;100.00;99100.56;5051927;28;20279;-77
2024/03/24 01:14:29;;;;;;;9.07;3.30;;;;;;;3.34;100.00;99108.81;5065767;28;20681;-79
2024/03/24 01:16:54;;;;;;;11.60;4.40;;;;;;;3.28;100.00;99113.94;5065791;28;20962;-76
2024/03/24 01:19:20;;;;;;;15.80;4.45;;;;;;;3.34;100.00;99129.09;5063248;28;20040;-77
2024/03/24 01:21:45;;;;;;;12.00;3.38;;;;;;;3.39;100.00;99118.91;5067147;28;20037;-78
2024/03/24 01:24:10;;;;;;;10.37;4.10;;;;;;;3.15;100.00;99103.78;5069804;28;20127;-78
2024/03/24 01:26:36;;;;;;;12.67;3.53;;;;;;;3.26;100.00;99119.34;5069811;28;20286;-78
2024/03/24 01:29:01;;;;;;;11.33;3.57;;;;;;;3.22;100.00;99107.44;5055499;28;20612;-78
2024/03/24 01:31:27;;;;;;;22.38;6.60;;;;;;;3.31;100.00;99114.44;5048261;28;20089;-76
2024/03/24 01:33:54;;;;;;;8.40;3.72;;;;;;;3.31;100.00;99119.69;5066848;28;20040;-78
2024/03/24 01:36:19;;;;;;;12.85;3.40;;;;;;;3.34;100.00;99124.66;5071027;28;20032;-78
2024/03/24 01:38:44;;;;;;;11.48;4.32;;;;;;;3.17;100.00;99092.09;5045884;28;20065;-77
2024/03/24 01:41:10;;;;;;;6.77;3.67;;;;;;;3.35;100.00;99128.97;5058550;28;20033;-78
2024/03/24 01:43:35;;;;;;;9.70;3.70;;;;;;;2.98;100.00;99065.09;5067579;28;20267;-78
2024/03/24 01:46:01;;;;;;;9.55;4.00;;;;;;;3.25;100.00;99114.22;5061602;28;20040;-78
2024/03/24 01:48:26;;;;;;;9.50;4.63;;;;;;;3.25;100.00;99119.50;5069718;28;20040;-77
2024/03/24 01:50:52;;;;;;;16.52;3.88;;;;;;;3.35;100.00;99118.41;5061726;28;20036;-78
2024/03/24 01:53:19;;;;;;;9.73;3.70;;;;;;;3.30;100.00;99110.16;5066323;28;20600;-77
2024/03/24 01:55:45;;;;;;;8.23;4.40;;;;;;;3.29;100.00;99099.75;5071129;28;20032;-78
2024/03/24 01:58:11;;;;;;;10.77;3.97;;;;;;;3.17;100.00;99092.09;5062724;28;20029;-77
2024/03/24 02:00:36;;;;;;;11.00;4.85;;;;;;;3.50;100.00;99117.81;5059357;28;20086;-78
2024/03/24 02:03:02;;;;;;;10.05;4.05;;;;;;;3.42;100.00;99075.56;5043600;28;20034;-78
2024/03/24 02:05:27;;;;;;;9.68;4.97;;;;;;;3.21;100.00;99054.84;5067414;28;20040;-78
2024/03/24 02:07:54;;;;;;;9.48;4.90;;;;;;;3.33;100.00;99099.28;5069542;28;20035;-79
2024/03/24 02:10:23;;;;;;;19.92;4.88;;;;;;;3.22;100.00;99078.44;5043241;28;20366;-78
2024/03/24 02:12:48;;;;;;;18.83;5.13;;;;;;;3.12;100.00;99062.72;5039635;28;20407;-77
2024/03/24 02:15:14;;;;;;;8.90;4.75;;;;;;;3.24;100.00;99104.66;5046233;28;20041;-77
2024/03/24 02:17:41;;;;;;;10.90;5.55;;;;;;;3.14;100.00;99084.50;5040852;28;20144;-78
2024/03/24 02:20:07;;;;;;;14.02;5.95;;;;;;;3.31;100.00;99103.06;5047198;28;20043;-78
2024/03/24 02:22:37;;;;;;;11.80;5.55;;;;;;;3.24;100.00;99091.47;5065309;28;20078;-79
2024/03/24 02:25:06;;;;;;;14.98;5.20;;;;;;;3.35;100.00;99104.41;5062885;28;20032;-79
2024/03/24 02:27:32;;;;;;;17.05;6.53;;;;;;;3.21;100.00;99076.78;5060285;28;20542;-78
2024/03/24 02:29:58;;;;;;;17.92;7.03;;;;;;;3.15;100.00;99082.66;5051051;28;20213;-78
2024/03/24 02:32:25;;;;;;;11.75;6.55;;;;;;;3.24;100.00;99092.28;5047389;28;20834;-77
2024/03/24 02:34:51;;;;;;;12.48;5.80;;;;;;;3.27;100.00;99109.63;5024732;28;20061;-79
2024/03/24 02:37:16;;;;;;;9.38;5.95;;;;;;;3.16;100.00;99081.69;5057614;28;20451;-79
2024/03/24 02:39:42;;;;;;;17.63;8.07;;;;;;;3.36;100.00;99122.69;5044110;28;20574;-78
2024/03/24 02:42:07;;;;;;;14.27;7.03;;;;;;;3.37;100.00;99105.91;5069833;28;20274;-79
2024/03/24 02:44:35;;;;;;;16.85;7.53;;;;;;;3.47;100.00;99081.22;5060202;28;20560;-79
2024/03/24 02:47:01;;;;;;;12.15;6.85;;;;;;;3.42;100.00;99086.09;5058604;28;20400;-79
2024/03/24 02:49:26;;;;;;;23.30;9.70;;;;;;;3.30;100.00;99075.00;5044142;28;20027;-78
2024/03/24 02:51:52;;;;;;;;;;;;;;;3.36;100.00;99090.22;5038732;28;20067;-79
2024/03/24 02:54:17;;;;;;;17.88;8.60;;;;;;;3.50;100.00;99107.28;5061252;28;19955;-78
2024/03/24 02:56:43;;;;;;;18.63;7.27;;;;;;;3.58;100.00;99086.19;5044315;28;20127;-78
2024/03/24 02:59:08;;;;;;;19.23;6.93;;;;;;;3.49;100.00;99058.09;5053590;28;20279;-79
2024/03/24 03:01:33;;;;;;;15.43;7.43;;;;;;;3.28;100.00;99046.16;5033364;28;20306;-79
2024/03/24 03:03:59;;;;;;;15.45;7.03;;;;;;;3.39;100.00;99068.78;5050484;28;20037;-78
2024/03/24 03:06:24;;;;;;;11.95;6.07;;;;;;;3.40;100.00;99070.47;5034176;28;20106;-77
2024/03/24 03:08:50;;;;;;;14.40;6.93;;;;;;;3.45;100.00;99067.34;5069830;28;20120;-77
2024/03/24 03:11:15;;;;;;;15.75;6.25;;;;;;;3.58;100.00;99073.00;5049668;28;20071;-77
2024/03/24 03:13:41;;;;;;;13.25;6.15;;;;;;;3.37;100.00;99028.53;5034397;28;20033;-77
2024/03/24 03:16:06;;;;;;;14.77;6.85;;;;;;;3.32;100.00;99030.84;5051432;28;20036;-79
2024/03/24 03:18:32;;;;;;;12.90;7.18;;;;;;;3.44;100.00;99050.69;5065575;28;20039;-77
2024/03/24 03:20:57;;;;;;;12.35;6.97;;;;;;;3.54;100.00;99066.41;5067165;28;20028;-79
2024/03/24 03:23:23;;;;;;;13.88;7.18;;;;;;;3.46;100.00;99039.97;5050383;28;20524;-78
2024/03/24 03:25:48;;;;;;;14.18;6.88;;;;;;;3.53;100.00;99038.34;5066009;28;20097;-79
2024/03/24 03:28:14;;;;;;;10.48;7.20;;;;;;;3.42;100.00;99018.38;5043464;28;20041;-79
2024/03/24 03:30:40;;;;;;;15.18;6.38;;;;;;;3.52;100.00;99031.44;5044377;28;20033;-78
2024/03/24 03:33:05;;;;;;;14.50;8.00;;;;;;;3.69;100.00;99038.41;5061819;28;20129;-78
2024/03/24 03:35:30;;;;;;;14.43;7.17;;;;;;;3.50;100.00;98992.00;5049619;28;20395;-78
2024/03/24 03:37:56;;;;;;;14.27;7.70;;;;;;;3.58;100.00;99015.78;5051372;28;20063;-77
2024/03/24 03:40:21;;;;;;;11.20;7.28;;;;;;;3.66;100.00;99043.19;5058482;28;20038;-78
2024/03/24 03:42:47;;;;;;;15.98;7.05;;;;;;;3.65;100.00;99031.78;5056325;28;20024;-78
2024/03/24 03:45:15;;;;;;;15.90;7.47;;;;;;;3.68;100.00;99036.75;5060378;28;20506;-78
2024/03/24 03:47:40;;;;;;;11.32;6.90;;;;;;;3.80;100.00;99051.31;5027221;28;20040;-78
2024/03/24 03:50:13;;;;;;;11.80;7.75;;;;;;;3.88;100.00;99020.63;5067213;28;20037;-78
2024/03/24 03:52:39;;;;;;;17.42;7.55;;;;;;;3.82;100.00;99011.56;5059377;28;20037;-78
2024/03/24 03:55:11;;;;;;;;;;;;;;;3.90;100.00;99021.31;5068482;28;20020;-78
2024/03/24 03:57:38;;;;;;;12.00;6.90;;;;;;;3.75;100.00;99000.81;5067708;28;19963;-77
2024/03/24 04:00:10;;;;;;;17.58;8.27;;;;;;;3.80;100.00;99021.47;5061226;28;20052;-80
2024/03/24 04:02:40;;;;;;;16.63;7.63;;;;;;;3.71;100.00;99011.84;5059106;28;20112;-79
2024/03/24 04:05:10;;;;;;;16.65;7.75;;;;;;;3.60;100.00;98991.84;5050739;28;20035;-77
2024/03/24 04:07:36;;;;;;;14.68;6.95;;;;;;;3.67;100.00;99006.06;5059546;28;20143;-80
2024/03/24 04:10:04;;;;;;;18.95;7.22;;;;;;;3.77;100.00;99013.88;5062168;28;20017;-78
2024/03/24 04:12:30;;;;;;;13.95;7.82;;;;;;;3.93;100.00;99026.25;5063439;28;20036;-77
2024/03/24 04:14:55;;;;;;;12.95;7.43;;;;;;;3.89;100.00;99001.19;5038768;28;20439;-79
2024/03/24 04:17:20;;;;;;;13.80;7.03;;;;;;;3.95;100.00;98996.06;5061729;28;20054;-78
2024/03/24 04:19:46;;;;;;;12.60;7.40;;;;;;;3.92;100.00;98963.88;5036131;28;20270;-79
2024/03/24 04:22:14;;;;;;;18.17;7.28;;;;;;;4.08;100.00;98965.72;5066951;28;20407;-80
2024/03/24 04:24:39;;;;;;;12.57;7.88;;;;;;;3.98;100.00;98955.28;5066046;28;20020;-77
2024/03/24 04:27:05;;;;;;;18.88;8.23;;;;;;;3.78;100.00;98934.50;5055754;28;20447;-78
2024/03/24 04:29:30;;;;;;;13.95;7.88;;;;;;;3.78;100.00;98949.50;5063415;28;20021;-78
2024/03/24 04:31:55;;;;;;;18.75;8.38;;;;;;;3.65;100.00;98943.88;5059023;28;20032;-80
2024/03/24 04:34:21;;;;;;;15.02;8.85;;;;;;;3.89;100.00;98985.34;5041722;28;20530;-78
2024/03/24 04:36:47;;;;;;;22.33;8.70;;;;;;;3.86;100.00;98965.34;5060609;28;20041;-78
2024/03/24 04:39:12;;;;;;;16.00;9.77;;;;;;;3.90;100.00;98982.53;5052265;28;20148;-78
2024/03/24 04:41:41;;;;;;;15.77;8.57;;;;;;;4.04;100.00;98993.44;5071657;28;20037;-78
2024/03/24 04:44:06;;;;;;;17.95;8.75;;;;;;;4.06;100.00;98976.44;5047631;28;20287;-78
2024/03/24 04:46:32;;;;;;;19.60;9.07;;;;;;;3.83;100.00;98955.13;5065526;28;20036;-78
2024/03/24 04:48:58;;;;;;;14.65;8.90;;;;;;;4.01;100.00;98978.75;5045692;28;20411;-79
2024/03/24 04:51:26;;;;;;;18.92;10.02;;;;;;;4.08;100.00;98990.31;5067368;28;20028;-79
2024/03/24 04:53:53;;;;;;;15.57;8.35;;;;;;;3.92;100.00;98966.53;5072159;28;20028;-79
2024/03/24 04:56:19;;;;;;;21.15;10.85;;;;;;;3.92;100.00;98969.16;5045793;28;20103;-78
2024/03/24 04:58:44;;;;;;;18.37;9.50;;;;;;;3.98;100.00;98973.78;5061250;28;20048;-78
2024/03/24 05:01:11;;;;;;;19.10;8.65;;;;;;;4.09;100.00;98993.78;5070379;28;21078;-78
2024/03/24 05:03:36;;;;;;;17.38;8.77;;;;;;;4.10;100.00;98982.25;5046729;28;20040;-78
2024/03/24 05:06:03;;;;;;;19.52;10.43;;;;;;;3.88;100.00;98978.41;5072575;28;20036;-78
2024/03/24 05:08:29;;;;;;;17.75;8.75;;;;;;;3.98;100.00;98994.91;5047268;28;20218;-78
2024/03/24 05:10:54;;;;;;;17.23;9.63;;;;;;;4.17;100.00;99020.22;5045878;28;20034;-77
2024/03/24 05:13:20;;;;;;;21.15;9.02;;;;;;;4.04;100.00;98993.44;5047763;28;20473;-77
2024/03/24 05:15:55;;;;;;;14.80;8.67;;;;;;;4.04;100.00;99011.94;5071200;28;20095;-78
2024/03/24 05:18:21;;;;;;;18.35;10.82;;;;;;;4.13;100.00;99046.09;5066229;28;20283;-78
2024/03/24 05:20:47;;;;;;;21.25;10.43;;;;;;;4.06;100.00;99055.66;5069993;28;20649;-78
2024/03/24 05:23:18;;;;;;;14.15;8.40;;;;;;;4.02;100.00;99057.78;5070762;28;20125;-78
2024/03/24 05:25:54;;;;;;;13.82;8.82;;;;;;;4.01;100.00;99077.28;5045384;28;20037;-77
2024/03/24 05:28:20;;;;;;;16.10;9.43;;;;;;;3.78;100.00;99048.00;5068386;28;20033;-77
2024/03/24 05:30:51;;;;;;;21.92;10.05;;;;;;;3.99;100.00;99070.50;5071547;28;20391;-78
2024/03/24 05:33:17;;;;;;;17.23;8.95;;;;;;;3.89;100.00;99085.69;5070420;28;20051;-78
2024/03/24 05:35:44;;;;;;;20.88;8.93;;;;;;;3.88;100.00;99068.97;5067089;28;20111;-78
2024/03/24 05:38:10;;;;;;;19.75;9.60;;;;;;;3.75;100.00;99064.16;5067767;28;20068;-78
2024/03/24 05:40:35;;;;;;;19.88;11.38;;;;;;;3.80;100.00;99075.06;5046252;28;20420;-78
2024/03/24 05:43:00;;;;;;;19.17;10.17;;;;;;;3.94;100.00;99083.38;5070828;28;20478;-78
2024/03/24 05:45:26;;;;;;;14.68;9.07;;;;;;;3.97;100.00;99081.22;5070957;28;20039;-78
2024/03/24 05:47:51;;;;;;;16.53;10.70;;;;;;;4.06;100.00;99079.44;5053309;28;20482;-77
2024/03/24 05:50:16;;;;;;;18.20;10.13;;;;;;;3.79;100.00;99059.38;5067566;28;20626;-77
2024/03/24 05:52:42;;;;;;;17.87;9.03;;;;;;;3.77;100.00;99064.03;5068361;28;20494;-77
2024/03/24 05:55:12;;;;;;;16.63;9.25;;;;;;;3.81;100.00;99074.06;5051617;28;20313;-77
2024/03/24 05:57:38;;;;;;;18.00;10.23;;;;;;;4.09;100.00;99096.78;5067784;28;20408;-77
2024/03/24 06:00:05;;;;;;;16.85;10.90;;;;;;;3.97;100.00;99080.41;5066136;28;20024;-77
2024/03/24 06:02:36;;;;;;;17.73;10.95;;;;;;;3.95;100.00;99082.38;5056034;28;20037;-78
2024/03/24 06:05:02;;;;;;;19.00;11.30;;;;;;;4.01;100.00;99092.31;5063320;28;20032;-77
2024/03/24 06:07:29;;;;;;;20.48;12.18;;;;;;;4.04;100.00;99084.06;5069431;28;20499;-77
2024/03/24 06:09:54;;;;;;;22.15;11.52;;;;;;;3.97;100.00;99075.13;5067638;28;20033;-77
2024/03/24 06:12:21;;;;;;;20.88;12.68;;;;;;;3.81;100.00;99063.50;5032685;28;20071;-76
2024/03/24 06:14:47;;;;;;;19.58;11.70;;;;;;;4.00;100.00;99077.44;5052152;28;20089;-77
2024/03/24 06:17:13;;;;;;;21.05;11.32;;;;;;;3.80;100.00;99061.06;5061469;28;20488;-78
2024/03/24 06:19:40;;;;;;;20.77;11.10;;;;;;;3.79;100.00;99075.22;5060352;28;20113;-77
2024/03/24 06:22:06;;;;;;;17.20;11.13;;;;;;;3.92;100.00;99072.16;5055147;28;20045;-78
2024/03/24 06:24:31;;;;;;;17.65;11.70;;;;;;;3.95;100.00;99053.34;5056887;28;20077;-77
2024/03/24 06:26:57;;;;;;;25.30;12.65;;;;;;;4.06;100.00;99065.41;5058238;28;20143;-77
2024/03/24 06:29:22;;;;;;;20.63;11.40;;;;;;;4.07;100.00;99067.06;5058194;28;20468;-78
2024/03/24 06:31:47;;;;;;;21.95;13.32;;;;;;;3.93;100.00;99044.75;5067764;28;20079;-77
2024/03/24 06:34:13;;;;;;;21.47;11.23;;;;;;;4.10;100.00;99082.59;5066838;28;20024;-77
2024/03/24 06:36:39;;;;;;;18.77;10.50;;;;;;;4.15;100.00;99072.38;5067286;28;20978;-78
2024/03/24 06:39:06;;;;;;;17.98;10.18;;;;;;;4.30;100.00;99081.28;5048828;28;20064;-77
2024/03/24 06:41:31;;;;;;;;;;;;;;;4.18;100.00;99059.66;5060241;28;20023;-78
2024/03/24 06:43:56;;;;;;;19.70;12.13;;;;;;;4.10;100.00;99050.91;5070186;28;19908;-77
2024/03/24 06:46:23;;;;;;;19.45;12.70;;;;;;;4.05;100.00;99038.19;5068665;28;20083;-77
2024/03/24 06:48:48;;;;;;;27.52;12.93;;;;;;;4.15;100.00;99059.16;5049717;28;20067;-79
2024/03/24 06:51:13;;;;;;;21.63;12.83;;;;;;;4.15;100.00;99064.44;5045850;28;20099;-79
2024/03/24 06:53:39;;;;;;;23.23;11.53;;;;;;;4.18;100.00;99075.50;5062512;28;20294;-76
2024/03/24 06:56:05;;;;;;;16.95;10.75;;;;;;;4.33;100.00;99088.91;5064084;28;20517;-75
2024/03/24 06:58:30;;;;;;;19.67;12.63;;;;;;;4.39;100.00;99076.84;5066413;28;20058;-78
2024/03/24 07:00:56;;;;;;;22.25;12.48;;;;;;;4.22;100.00;99060.16;5051055;28;20055;-78
2024/03/24 07:03:21;;;;;;;18.27;11.13;;;;;;;4.34;100.00;99058.03;5051517;28;20445;-77
2024/03/24 07:05:47;;;;;;;19.80;12.32;;;;;;;4.45;100.00;99065.66;5064874;28;20061;-75
2024/03/24 07:08:12;;;;;;;23.90;11.73;;;;;;;4.59;100.00;99062.34;5065018;28;20493;-79
2024/03/24 07:10:38;;;;;;;17.03;11.40;;;;;;;4.68;100.00;99042.00;5068522;28;20283;-77
2024/03/24 07:13:03;;;;;;;15.05;9.48;;;;;;;4.90;100.00;99048.44;5061278;28;21157;-77
2024/03/24 07:15:29;;;;;;;17.25;9.70;;;;;;;4.92;100.00;99024.47;5065923;28;20076;-78
2024/03/24 07:17:54;;;;;;;18.55;9.95;;;;;;;4.92;100.00;99009.44;5059956;28;20033;-75
2024/03/24 07:20:19;;;;;;;16.70;9.93;;;;;;;4.88;100.00;98986.97;5047582;28;20024;-76
2024/03/24 07:22:45;;;;;;;15.50;10.20;;;;;;;5.31;100.00;99019.22;5048320;28;20488;-76
2024/03/24 07:25:12;;;;;;;10.53;7.03;;;;;;;5.12;100.00;98970.19;5026665;28;1049505;-77
2024/03/24 07:27:38;;;;;;;17.63;9.93;;;;;;;4.99;100.00;98954.88;5066769;28;20032;-77
2024/03/24 07:30:04;;;;;;;17.05;9.93;;;;;;;4.97;100.00;98964.78;5050636;28;20040;-74
2024/03/24 07:32:29;;;;;;;14.57;9.48;;;;;;;5.07;100.00;98985.75;5057812;28;20143;-75
2024/03/24 07:34:54;;;;;;;15.60;10.60;;;;;;;5.08;100.00;98977.66;5050466;28;20395;-74
2024/03/24 07:37:20;;;;;;;15.20;9.53;;;;;;;5.39;100.00;98982.16;5066453;28;20286;-76
2024/03/24 07:39:45;;;;;;;15.30;9.35;;;;;;;5.41;100.00;98955.53;5067389;28;20025;-76
2024/03/24 07:42:11;;;;;;;12.43;7.90;;;;;;;5.56;100.00;98947.69;5067843;28;20120;-77
2024/03/24 07:44:36;;;;;;;13.80;8.20;;;;;;;5.55;100.00;98924.81;5044191;28;20775;-78
2024/03/24 07:47:06;;;;;;;15.15;8.57;;;;;;;5.61;100.00;98913.56;5051188;28;20032;-77
2024/03/24 07:49:34;;;;;;;14.45;8.45;;;;;;;5.14;100.00;98888.00;5066003;28;20040;-78
2024/03/24 07:52:00;;;;;;;13.32;8.35;;;;;;;4.96;100.00;98906.75;5068017;28;20530;-75
2024/03/24 07:54:25;;;;;;;13.02;8.32;;;;;;;5.05;100.00;98922.44;5064041;28;20036;-77
2024/03/24 07:56:51;;;;;;;12.23;9.20;;;;;;;5.04;100.00;98918.16;5048185;28;20115;-78
2024/03/24 07:59:17;;;;;;;13.53;8.97;;;;;;;5.10;100.00;98919.25;5066105;28;20267;-76
2024/03/24 08:01:43;;;;;;;14.05;8.55;;;;;;;5.04;100.00;98923.44;5066244;28;20047;-77
2024/03/24 08:04:09;;;;;;;15.75;8.63;;;;;;;5.10;100.00;98927.19;5064477;28;20044;-75
2024/03/24 08:06:34;;;;;;;12.05;8.48;;;;;;;5.09;100.00;98915.00;5064094;28;20047;-77
2024/03/24 08:09:00;;;;;;;14.47;8.73;;;;;;;5.30;100.00;98922.34;5048291;28;20016;-76
2024/03/24 08:11:25;;;;;;;14.13;8.50;;;;;;;5.62;100.00;98937.22;5064446;28;20024;-77
2024/03/24 08:13:51;;;;;;;11.93;7.70;;;;;;;5.60;100.00;98880.97;5065850;28;20024;-76
2024/03/24 08:16:16;;;;;;;12.43;8.40;;;;;;;5.62;100.00;98880.78;5043390;28;20036;-75
2024/03/24 08:18:41;;;;;;;11.03;7.33;;;;;;;5.36;100.00;98850.19;5064353;28;20291;-77
2024/03/24 08:21:07;;;;;;;8.77;6.37;;;;;;;5.26;100.00;98845.09;5066015;28;20029;-77
2024/03/24 08:23:32;;;;;;;9.00;6.60;;;;;;;5.35;100.00;98860.94;5059134;28;20032;-75
2024/03/24 08:25:58;;;;;;;11.68;7.18;;;;;;;5.55;100.00;98867.44;5063132;28;20727;-77
2024/03/24 08:28:24;;;;;;;9.43;5.70;;;;;;;5.52;100.00;98851.88;5069441;28;20040;-77
2024/03/24 08:30:49;;;;;;;9.70;5.82;;;;;;;5.29;100.00;98810.38;5054068;28;20141;-75
2024/03/24 08:33:14;;;;;;;8.50;5.57;;;;;;;5.41;100.00;98837.25;5053406;28;20041;-73
2024/03/24 08:35:40;;;;;;;9.90;5.97;;;;;;;5.55;100.00;98850.72;5051941;28;20072;-77
2024/03/24 08:38:05;;;;;;;10.77;6.70;;;;;;;5.56;100.00;98841.78;5053610;28;20063;-77
2024/03/24 08:40:31;;;;;;;11.73;5.25;;;;;;;5.75;100.00;98851.88;5053551;28;20024;-77
2024/03/24 08:42:56;;;;;;;14.18;5.90;;;;;;;5.50;100.00;98827.41;5051366;28;20020;-77
2024/03/24 08:45:22;;;;;;;12.37;5.87;;;;;;;5.80;100.00;98868.06;5056591;28;20500;-77
2024/03/24 08:47:47;;;;;;;8.00;4.73;;;;;;;5.63;100.00;98822.34;5066081;28;20036;-77
2024/03/24 08:50:12;;;;;;;8.27;5.00;;;;;;;5.70;100.00;98830.41;5039451;28;20025;-77
2024/03/24 08:52:38;;;;;;;10.63;4.57;;;;;;;6.10;100.00;98850.47;5064256;28;20271;-77
2024/03/24 08:55:04;;;;;;;7.38;4.07;;;;;;;6.25;100.00;98808.09;5054250;28;20033;-78
2024/03/24 08:57:29;;;;;;;4.57;3.67;;;;;;;6.22;100.00;98741.38;5064265;28;20072;-74
2024/03/24 08:59:56;;;;;;;7.70;4.53;;;;;;;5.92;100.00;98746.63;5052728;28;20075;-75
2024/03/24 09:02:22;;;;;;;7.72;4.28;;;;;;;6.24;100.00;98795.84;5061536;28;20059;-78
2024/03/24 09:04:53;;;;;;;6.35;3.78;;;;;;;5.93;100.00;98711.22;5055411;28;20036;-77
2024/03/24 09:07:21;;;;;;;13.85;5.03;;;;;;;5.76;100.00;98713.22;5045943;28;20032;-78
2024/03/24 09:09:47;;;;;;;8.25;4.40;;;;;;;5.86;100.00;98728.84;5065344;28;20467;-77
2024/03/24 09:12:13;;;;;;;8.95;4.07;;;;;;;6.08;100.00;98724.47;5059956;28;20036;-78
2024/03/24 09:14:38;;;;;;;8.65;4.07;;;;;;;6.02;100.00;98673.06;5048745;28;20037;-77
2024/03/24 09:17:04;;;;;;;7.70;4.10;;;;;;;6.17;100.00;98688.13;5036918;28;20051;-76
2024/03/24 09:19:29;;;;;;;8.37;3.30;;;;;;;6.31;100.00;98672.19;5042318;28;20797;-73
2024/03/24 09:21:54;;;;;;;14.37;3.90;;;;;;;6.26;100.00;98653.38;5065670;28;20082;-76
2024/03/24 09:24:20;;;;;;;9.83;4.20;;;;;;;6.48;100.00;98650.75;5064355;28;20331;-77
2024/03/24 09:26:46;;;;;;;8.90;3.53;;;;;;;6.41;100.00;98589.72;5064438;28;20032;-76
2024/03/24 09:29:11;;;;;;;8.00;3.72;;;;;;;6.40;100.00;98609.28;5058844;28;20028;-75
2024/03/24 09:31:36;;;;;;;9.53;3.73;;;;;;;6.29;100.00;98573.50;5048846;28;20655;-77
2024/03/24 09:34:02;;;;;;;14.93;4.17;;;;;;;6.30;100.00;98593.69;5050359;28;20040;-77
2024/03/24 09:36:28;;;;;;;8.95;3.60;;;;;;;6.27;100.00;98606.50;5044509;28;20034;-77
2024/03/24 09:38:53;;;;;;;8.37;3.67;;;;;;;6.92;100.00;98686.91;5051594;28;20032;-77
2024/03/24 09:41:20;;;;;;;5.77;2.80;;;;;;;7.51;100.00;98506.03;5049113;28;20033;-78
2024/03/24 09:43:46;;;;;;;7.18;3.47;;;;;;;7.70;100.00;98431.97;5042656;28;20637;-75
2024/03/24 09:46:13;;;;;;;9.68;3.53;;;;;;;7.47;100.00;98321.63;5050300;28;20103;-76
2024/03/24 09:48:40;;;;;;;7.85;3.67;;;;;;;7.07;100.00;98233.13;5044670;28;20836;-76
2024/03/24 09:51:08;;;;;;;13.30;4.78;;;;;;;6.96;100.00;98299.03;5050910;28;20036;-74
2024/03/24 09:53:34;;;;;;;6.82;3.08;;;;;;;7.09;100.00;98292.94;5059804;28;20454;-77
2024/03/24 09:56:00;;;;;;;;;;;;;;;7.31;100.00;98322.81;5059453;28;20531;-75
2024/03/24 09:58:25;;;;;;;8.35;3.25;;;;;;;7.71;100.00;98348.63;5040767;28;19914;-78
2024/03/24 10:00:51;;;;;;;7.65;3.30;;;;;;;7.18;100.00;98193.56;5057927;28;20102;-78
2024/03/24 10:03:17;;;;;;;7.53;2.97;;;;;;;7.21;100.00;98240.13;5036208;28;20037;-78
2024/03/24 10:05:43;;;;;;;7.78;3.00;;;;;;;7.05;100.00;98216.63;5042573;28;20041;-78
2024/03/24 10:08:10;;;;;;;10.65;4.45;;;;;;;7.05;100.00;98265.19;5039747;28;20645;-77
2024/03/24 10:10:36;;;;;;;9.32;2.83;;;;;;;7.23;100.00;98393.84;5050694;28;20461;-78
2024/03/24 10:13:03;;;;;;;10.40;2.92;;;;;;;6.62;100.00;98336.22;5069484;28;20033;-78
2024/03/24 10:15:29;;;;;;;3.92;2.53;;;;;;;6.87;100.00;98480.59;5044425;28;20859;-77
2024/03/24 10:18:11;;;;;;;6.85;2.97;;;;;;;6.96;100.00;98468.81;5068467;28;20442;-76
2024/03/24 10:20:38;;;;;;;7.00;2.90;;;;;;;7.09;100.00;98494.59;5055874;28;20071;-77
2024/03/24 10:23:04;;;;;;;5.10;2.90;;;;;;;7.26;100.00;98494.28;5069368;28;20020;-77
2024/03/24 10:25:31;;;;;;;9.30;4.18;;;;;;;6.76;100.00;98428.06;5070155;28;20399;-76
2024/03/24 10:27:57;;;;;;;9.93;4.45;;;;;;;6.98;100.00;98500.47;5064481;28;20125;-77
2024/03/24 10:30:24;;;;;;;6.43;3.20;;;;;;;6.89;100.00;98461.84;5066714;28;20036;-75
2024/03/24 10:32:50;;;;;;;7.07;2.92;;;;;;;6.80;100.00;98537.25;5068048;28;20025;-75
2024/03/24 10:35:15;;;;;;;10.20;3.90;;;;;;;7.33;100.00;98604.81;5068088;28;20127;-77
2024/03/24 10:37:41;;;;;;;14.57;4.32;;;;;;;7.55;100.00;98539.16;5050857;28;20134;-76
2024/03/24 10:40:13;;;;;;;6.43;4.07;;;;;;;8.03;100.00;98504.63;5053677;28;20025;-77
2024/03/24 10:42:45;;;;;;;10.27;2.65;;;;;;;7.73;100.00;98334.13;5063129;28;20887;-74
2024/03/24 10:45:16;;;;;;;5.75;2.28;;;;;;;7.36;100.00;98171.72;5064175;28;20029;-75
2024/03/24 10:47:42;;;;;;;7.78;3.08;;;;;;;7.56;100.00;98248.72;5066818;28;20510;-77
2024/03/24 10:50:14;;;;;;;5.43;2.08;;;;;;;7.30;100.00;98155.81;5059359;28;20020;-78
2024/03/24 10:52:42;;;;;;;7.88;2.00;;;;;;;7.68;100.00;98256.06;5061390;28;20024;-75
2024/03/24 10:55:11;;;;;;;3.88;1.80;;;;;;;7.70;100.00;98118.56;5066680;28;20514;-77
2024/03/24 10:57:41;;;;;;;6.40;2.22;;;;;;;7.77;100.00;98130.00;5067489;28;20490;-78
2024/03/24 11:00:07;;;;;;;4.35;2.33;;;;;;;7.38;100.00;97989.19;5065904;28;20040;-78
2024/03/24 11:02:33;;;;;;;6.63;1.70;;;;;;;7.37;100.00;98061.91;5068080;28;20419;-76
2024/03/24 11:05:01;;;;;;;7.22;1.83;;;;;;;7.08;100.00;98028.66;5068353;28;20024;-78
2024/03/24 11:07:27;;;;;;;8.98;1.90;;;;;;;6.88;100.00;98104.75;5063836;28;20040;-77
2024/03/24 11:09:53;;;;;;;4.38;2.40;;;;;;;7.09;100.00;98223.94;5066566;28;20097;-77
2024/03/24 11:12:19;;;;;;;3.90;2.17;;;;;;;7.32;100.00;98151.09;5068388;28;20561;-76
2024/03/24 11:14:45;;;;;;;4.93;2.28;;;;;;;7.43;100.00;98177.03;5068114;28;20036;-76
2024/03/24 11:17:10;;;;;;;3.10;2.10;;;;;;;8.03;100.00;98262.00;5064792;28;20115;-77
2024/03/24 11:19:46;;;;;;;7.00;2.15;;;;;;;7.74;100.00;98061.38;5045986;28;20082;-76
2024/03/24 11:22:11;;;;;;;2.97;2.08;;;;;;;7.73;100.00;98089.78;5061752;28;20043;-77